Flight Track Log - Related Links

Times and Time Zones

All times are in EDT time to prevent confusion due to time zone crossing. See the N351CG flight status page for this flight to view local times or setup timezone preferences in your user account.

Time Position Orientation Groundspeed Altitude Reporting Facility
EDT Latitude Longitude Course Direction KTS MPH feet Rate Location/Type
Tue 10:04:49 AM 44.9167 -93.0333 84° East 188 216 1,900  Level Minneapolis TRACON
Tue 10:05:39 AM 44.9214 -92.9717 84° East 231 266 2,900 1,071 Climbing Minneapolis Center
Tue 10:06:41 AM 44.8964 -92.9050 118° Southeast 239 275 3,900 2,129 Climbing Minneapolis Center
Tue 10:07:43 AM 44.8544 -92.7981 119° Southeast 258 297 7,300 3,242 Climbing Minneapolis Center
Tue 10:08:45 AM 44.8028 -92.6928 125° Southeast 269 310 10,600 2,352 Climbing Minneapolis Center
Tue 10:09:48 AM 44.7564 -92.6000 125° Southeast 292 336 12,200 1,536 Climbing Minneapolis Center
Tue 10:10:50 AM 44.7050 -92.4967 125° Southeast 320 368 13,800 1,645 Climbing Minneapolis Center
Tue 10:11:52 AM 44.6503 -92.3919 126° Southeast 332 382 15,600 1,645 Climbing Minneapolis Center
Tue 10:12:54 AM 44.5950 -92.2869 126° Southeast 334 384 17,200 1,500 Climbing Minneapolis Center
Tue 10:13:56 AM 44.5400 -92.1783 125° Southeast 338 389 18,700 1,452 Climbing Minneapolis Center
Tue 10:14:58 AM 44.4836 -92.0689 126° Southeast 344 396 20,200 1,597 Climbing Minneapolis Center
Tue 10:16:00 AM 44.4122 -91.9344 127° Southeast 354 407 22,000 1,597 Climbing Minneapolis Center
Tue 10:17:02 AM 44.3558 -91.8183 124° Southeast 360 414 23,500 1,452 Climbing Minneapolis Center
Tue 10:18:04 AM 44.3097 -91.6942 117° Southeast 361 415 25,000 1,403 Climbing Minneapolis Center
Tue 10:19:06 AM 44.2631 -91.5689 117° Southeast 363 418 26,400 1,059 Climbing Minneapolis Center
Tue 10:20:20 AM 44.2053 -91.4492 124° Southeast 371 427 27,400 1,051 Climbing Minneapolis Center
Tue 10:21:23 AM 44.1111 -91.2875 129° Southeast 382 440 28,800 1,104 Climbing Minneapolis Center
Tue 10:22:25 AM 44.0519 -91.1797 127° Southeast 388 447 29,700 968 Climbing Minneapolis Center
Tue 10:23:27 AM 43.9961 -91.0411 119° Southeast 389 448 30,800 1,016 Climbing Minneapolis Center
Tue 10:24:29 AM 43.9556 -90.9142 114° Southeast 388 447 31,800 1,016 Climbing Minneapolis Center
Tue 10:25:31 AM 43.8997 -90.7517 115° Southeast 390 449 32,900 1,065 Climbing Minneapolis Center
Tue 10:26:33 AM 43.8525 -90.6169 116° Southeast 390 449 34,000 1,016 Climbing Minneapolis Center
Tue 10:27:35 AM 43.8033 -90.4739 115° Southeast 391 450 35,000 968 Climbing Minneapolis Center
Tue 10:28:37 AM 43.7606 -90.3494 115° Southeast 386 444 36,000 968 Climbing Minneapolis Center
Tue 10:29:39 AM 43.7233 -90.2017 109° East 382 440 37,000 968 Climbing Minneapolis Center
Tue 10:30:41 AM 43.6911 -90.0650 108° East 376 433 38,000 1,065 Climbing Minneapolis Center
Tue 10:31:43 AM 43.6556 -89.9089 107° East 368 423 39,200 919 Climbing Minneapolis Center
Tue 10:32:45 AM 43.6222 -89.7767 109° East 365 420 39,900 677 Climbing Minneapolis Center
Tue 10:33:47 AM 43.5906 -89.6436 108° East 365 420 40,600 532 Climbing Minneapolis Center
Tue 10:34:49 AM 43.5575 -89.5097 109° East 367 422 41,000 194 Climbing Minneapolis Center
Tue 10:35:51 AM 43.5244 -89.3725 108° East 374 430 41,000  Level Minneapolis Center
Tue 10:36:53 AM 43.4833 -89.2061 109° East 388 447 41,000  Level Minneapolis Center
Tue 10:37:55 AM 43.4469 -89.0639 109° East 394 453 41,000  Level Minneapolis Center
Tue 10:38:57 AM 43.4111 -88.9200 109° East 396 456 41,000  Level Minneapolis Center
Tue 10:40:00 AM 43.3747 -88.7761 109° East 399 459 41,000  Level Minneapolis Center
Tue 10:41:02 AM 43.3317 -88.6097 110° East 402 463 41,000  Level Minneapolis Center
Tue 10:42:04 AM 43.2936 -88.4656 110° East 407 468 41,000  Level Minneapolis Center
Tue 10:43:30 AM 43.2406 -88.2489 109° East 402 463 41,000  Level Chicago Center
Tue 10:44:32 AM 43.2044 -88.1061 109° East 399 459 41,000  Level Chicago Center
Tue 10:45:34 AM 43.1667 -87.9603 110° East 405 466 41,000  Level Chicago Center
Tue 10:46:37 AM 43.1294 -87.8161 109° East 403 464 41,000  Level Chicago Center
Tue 10:47:39 AM 43.0925 -87.6711 109° East 404 465 41,000  Level Chicago Center
Tue 10:48:41 AM 43.0472 -87.5031 110° East 405 466 41,000  Level Chicago Center
Tue 10:49:43 AM 43.0094 -87.3614 110° East 407 468 41,000  Level Chicago Center
Tue 10:50:45 AM 42.9700 -87.2175 110° East 406 467 41,000  Level Chicago Center
Tue 10:51:47 AM 42.9319 -87.0703 109° East 412 474 41,000  Level Chicago Center
Tue 10:52:49 AM 42.8928 -86.9256 110° East 409 471 41,000  Level Chicago Center
Tue 10:53:51 AM 42.8439 -86.7511 111° Southeast 412 474 41,000  Level Chicago Center
Tue 10:54:53 AM 42.8036 -86.6058 111° Southeast 413 475 41,000  Level Chicago Center
Tue 10:55:55 AM 42.7636 -86.4611 111° Southeast 413 475 41,000  Level Chicago Center
Tue 10:56:57 AM 42.7233 -86.3161 111° Southeast 414 476 41,000  Level Chicago Center
Tue 10:57:59 AM 42.6836 -86.1714 110° East 414 476 41,000  Level Chicago Center
Tue 10:59:01 AM 42.6344 -85.9978 111° Southeast 417 480 41,000  Level Chicago Center
Tue 11:00:03 AM 42.5936 -85.8522 111° Southeast 417 480 41,000  Level Chicago Center
Tue 11:01:05 AM 42.5525 -85.7067 111° Southeast 417 480 41,000  Level Chicago Center
Tue 11:02:07 AM 42.5108 -85.5608 111° Southeast 417 480 41,000  Level Chicago Center
Tue 11:03:09 AM 42.4692 -85.4131 111° Southeast 421 484 41,000  Level Chicago Center
Tue 11:04:11 AM 42.4272 -85.2644 111° Southeast 424 488 41,000  Level Chicago Center
Tue 11:05:13 AM 42.3758 -85.0903 112° Southeast 419 482 41,000  Level Chicago Center
Tue 11:06:15 AM 42.3333 -84.9417 111° Southeast 425 489 41,000  Level Chicago Center
Tue 11:07:17 AM 42.2892 -84.7950 112° Southeast 425 489 41,000  Level Chicago Center
Tue 11:08:19 AM 42.2453 -84.6461 112° Southeast 427 491 41,000  Level Chicago Center
Tue 11:09:21 AM 42.2008 -84.4964 112° Southeast 431 496 41,000  Level Chicago Center
Tue 11:10:16 AM 42.1506 -84.3419 114° Southeast 421 484 41,000  Level Cleveland Center
Tue 11:11:16 AM 42.1056 -84.1883 112° Southeast 426 490 41,000  Level Cleveland Center
Tue 11:12:16 AM 42.0581 -84.0400 113° Southeast 426 490 41,000  Level Cleveland Center
Tue 11:13:16 AM 42.0122 -83.8922 113° Southeast 426 490 41,000  Level Cleveland Center
Tue 11:14:16 AM 41.9667 -83.7389 112° Southeast 426 490 41,000  Level Cleveland Center
Tue 11:15:16 AM 41.9164 -83.5858 114° Southeast 426 490 41,000  Level Cleveland Center
Tue 11:16:16 AM 41.8722 -83.4358 112° Southeast 431 496 41,000  Level Cleveland Center
Tue 11:17:16 AM 41.8239 -83.2833 113° Southeast 431 496 41,000  Level Cleveland Center
Tue 11:18:16 AM 41.7772 -83.1336 113° Southeast 431 496 41,000  Level Cleveland Center
Tue 11:19:16 AM 41.7306 -82.9817 112° Southeast 436 502 41,000  Level Cleveland Center
Tue 11:20:16 AM 41.6836 -82.8297 112° Southeast 436 502 41,000  Level Cleveland Center
Tue 11:21:16 AM 41.6403 -82.6975 114° Southeast 443 510 41,000  Level Cleveland Center
Tue 11:22:16 AM 41.5908 -82.5433 113° Southeast 443 510 41,000  Level Cleveland Center
Tue 11:23:16 AM 41.5433 -82.3947 113° Southeast 443 510 41,000  Level Cleveland Center
Tue 11:24:16 AM 41.4956 -82.2436 113° Southeast 438 504 41,000  Level Cleveland Center
Tue 11:25:16 AM 41.4456 -82.0900 113° Southeast 444 511 41,000  Level Cleveland Center
Tue 11:26:16 AM 41.3953 -81.9422 114° Southeast 439 505 41,000  Level Cleveland Center
Tue 11:27:16 AM 41.3408 -81.7694 113° Southeast 445 512 41,000  Level Cleveland Center
Tue 11:28:16 AM 41.2925 -81.6167 113° Southeast 445 512 41,000  Level Cleveland Center
Tue 11:29:16 AM 41.2417 -81.4639 114° Southeast 445 512 41,000  Level Cleveland Center
Tue 11:30:16 AM 41.1925 -81.3281 116° Southeast 450 518 41,000  Level Cleveland Center
Tue 11:31:16 AM 41.1414 -81.1758 114° Southeast 445 512 41,000  Level Cleveland Center
Tue 11:32:16 AM 41.0939 -81.0267 113° Southeast 445 512 41,000  Level Cleveland Center
Tue 11:33:16 AM 41.0425 -80.8750 114° Southeast 445 512 41,000  Level Cleveland Center
Tue 11:34:16 AM 40.9906 -80.7233 114° Southeast 445 512 41,000  Level Cleveland Center
Tue 11:35:16 AM 40.9386 -80.5750 115° Southeast 445 512 41,000  Level Cleveland Center
Tue 11:36:16 AM 40.8864 -80.4239 115° Southeast 445 512 41,000  Level Cleveland Center
Tue 11:37:16 AM 40.8256 -80.2619 116° Southeast 445 512 41,000  Level Cleveland Center
Tue 11:38:16 AM 40.7833 -80.1061 110° East 445 512 41,000  Level Cleveland Center
Tue 11:39:16 AM 40.7575 -79.9581 103° East 450 518 41,000  Level Cleveland Center
Tue 11:40:16 AM 40.7211 -79.7942 106° East 457 526 41,000 -50 Level Cleveland Center
Tue 11:41:16 AM 40.6867 -79.6356 106° East 457 526 40,900 -450 Descending Cleveland Center
Tue 11:42:16 AM 40.6517 -79.4747 106° East 457 526 40,100 -900 Descending Cleveland Center
Tue 11:43:16 AM 40.6189 -79.3111 105° East 457 526 39,100 -1,000 Descending Cleveland Center
Tue 11:44:16 AM 40.5772 -79.1425 108° East 447 514 38,100 -1,000 Descending Cleveland Center
Tue 11:45:16 AM 40.5417 -78.9847 106° East 447 514 37,100 -950 Descending Cleveland Center
Tue 11:46:16 AM 40.5103 -78.8408 106° East 447 514 36,200 -950 Descending Cleveland Center
Tue 11:47:16 AM 40.4767 -78.6833 106° East 447 514 35,200 -1,748 Descending Cleveland Center
Tue 11:48:47 AM 40.4192 -78.4378 107° East 447 514 31,800 -2,305 Descending New York Center
Tue 11:49:47 AM 40.3836 -78.2758 106° East 447 514 29,400 -2,400 Descending New York Center
Tue 11:50:47 AM 40.3478 -78.1167 106° East 452 520 27,000 -2,200 Descending New York Center
Tue 11:51:47 AM 40.3133 -77.9631 106° East 447 514 25,000 -1,000 Descending New York Center
Tue 11:52:47 AM 40.3086 -77.8019 92° East 442 509 25,000  Level New York Center
Tue 11:53:47 AM 40.3092 -77.6469 90° East 436 502 25,000 -450 Level New York Center
Tue 11:54:47 AM 40.2842 -77.5056 103° East 431 496 24,100 -1,400 Descending New York Center
Tue 11:55:47 AM 40.2675 -77.3569 98° East 431 496 22,200 -1,650 Descending New York Center
Tue 11:56:47 AM 40.2486 -77.2056 99° East 421 484 20,800 -1,350 Descending New York Center
Tue 11:57:47 AM 40.2242 -77.0400 101° East 416 479 19,500 -1,400 Descending New York Center
Tue 11:58:47 AM 40.2067 -76.9000 99° East 401 461 18,000 -850 Descending New York Center
Tue 11:59:47 AM 40.1903 -76.7706 99° East 401 461 17,800 -500 Descending New York Center
Tue 12:00:47 PM 40.1681 -76.6303 102° East 396 456 17,000 -800 Descending New York Center
Tue 12:01:47 PM 40.1483 -76.4792 100° East 391 450 16,200 -800 Descending New York Center
Tue 12:02:47 PM 40.1278 -76.3444 101° East 386 444 15,400 -900 Descending New York Center
Tue 12:03:47 PM 40.1167 -76.2267 97° East 375 432 14,400 -1,400 Descending New York Center
Tue 12:04:47 PM 40.1061 -76.0903 96° East 375 432 12,600 -1,850 Descending New York Center
Tue 12:05:47 PM 40.0978 -75.9511 94° East 357 411 10,700 -1,600 Descending New York Center
Tue 12:06:47 PM 40.0942 -75.8397 92° East 329 379 9,400 -1,150 Descending New York Center
Tue 12:07:47 PM 40.1133 -75.7325 77° East 296 341 8,400 -1,000 Descending New York Center
Tue 12:08:47 PM 40.1322 -75.6278 77° East 296 341 7,400 -1,000 Descending New York Center
Tue 12:09:47 PM 40.1489 -75.5258 78° East 291 335 6,400 -1,000 Descending New York Center
Tue 12:10:47 PM 40.1672 -75.4319 76° East 279 321 5,400 -700 Descending New York Center
Tue 12:11:47 PM 40.1858 -75.3328 76° East 274 315 5,000 -200 Descending New York Center
Tue 12:12:47 PM 40.1994 -75.2467 78° East 274 315 5,000  Level New York Center
Tue 12:13:47 PM 40.2181 -75.1419 77° East 274 315 5,000 -600 Level New York Center
Tue 12:14:47 PM 40.2397 -75.0589 71° East 250 288 3,800 -1,000 Descending New York Center
Tue 12:15:47 PM 40.2694 -74.9928 59° Northeast 218 251 3,000 -650 Descending New York Center
Tue 12:16:47 PM 40.2944 -74.9289 63° Northeast 197 227 2,500 -450 Descending New York Center
Tue 12:17:47 PM 40.3153 -74.8731 64° Northeast 191 220 2,100 -500 Descending New York Center
Tue 12:20:23 PM 40.3000 -74.7833 103° East 147 169 700 -538 Descending Philadelphia TRACON
Tue 12:22:00 PM 40.2667 -74.8000 201° Southwest  Level FlightAware Approximate
Tue 12:29:00 PM 40.2767 -74.8135 201° Southwest  Level Estimated

Login

Don't have an account? Register now (free) for customized features, flight alerts, and more!